createdAt,value
2018-10-05T00:01:13.383Z,5.53
2018-10-05T00:03:42.462Z,4.90
2018-10-05T00:06:11.301Z,5.10
2018-10-05T00:08:40.622Z,5.70
2018-10-05T00:11:09.963Z,4.97
2018-10-05T00:13:40.885Z,5.73
2018-10-05T00:16:09.619Z,5.63
2018-10-05T00:18:41.585Z,5.17
2018-10-05T00:21:10.885Z,4.90
2018-10-05T00:23:40.521Z,5.63
2018-10-05T00:26:10.245Z,4.80
2018-10-05T00:28:41.901Z,5.43
2018-10-05T00:31:12.911Z,5.57
2018-10-05T00:33:41.485Z,5.87
2018-10-05T00:36:10.634Z,5.63
2018-10-05T00:38:39.165Z,5.33
2018-10-05T00:41:07.689Z,5.30
2018-10-05T00:43:36.191Z,5.80
2018-10-05T00:46:04.733Z,6.37
2018-10-05T00:48:33.397Z,6.53
2018-10-05T00:51:01.933Z,6.53
2018-10-05T00:53:30.855Z,5.53
2018-10-05T00:56:00.365Z,5.33
2018-10-05T00:58:29.115Z,5.90
2018-10-05T01:01:00.128Z,5.60
2018-10-05T01:03:29.203Z,5.30
2018-10-05T01:05:59.607Z,5.80
2018-10-05T01:08:28.486Z,5.80
2018-10-05T01:10:57.816Z,6.80
2018-10-05T01:13:30.525Z,5.57
2018-10-05T01:16:00.239Z,5.83
2018-10-05T01:18:29.505Z,5.80
2018-10-05T01:20:59.262Z,5.40
2018-10-05T01:23:30.615Z,5.40
2018-10-05T01:25:59.860Z,5.73
2018-10-05T01:28:28.350Z,5.30
2018-10-05T01:30:57.015Z,6.57
2018-10-05T01:33:25.488Z,6.27
2018-10-05T01:35:56.038Z,7.50
2018-10-05T01:38:27.331Z,5.70
2018-10-05T01:40:58.996Z,4.90
2018-10-05T01:43:29.475Z,5.40
2018-10-05T01:45:59.993Z,5.73
2018-10-05T01:48:29.150Z,5.83
2018-10-05T01:50:58.285Z,5.40
2018-10-05T01:53:26.890Z,5.97
2018-10-05T01:55:57.438Z,6.47
2018-10-05T01:58:26.556Z,5.90
2018-10-05T02:00:55.317Z,5.83
2018-10-05T02:03:25.364Z,5.70
2018-10-05T02:05:55.534Z,5.80
2018-10-05T02:08:25.040Z,5.20
2018-10-05T02:10:55.480Z,5.67
2018-10-05T02:13:25.626Z,5.33
2018-10-05T02:15:56.122Z,5.57
2018-10-05T02:18:26.916Z,6.33
2018-10-05T02:20:55.598Z,5.70
2018-10-05T02:23:24.326Z,6.00
2018-10-05T02:25:55.500Z,6.20
2018-10-05T02:28:24.502Z,6.17
2018-10-05T02:30:59.196Z,7.10
2018-10-05T02:33:27.872Z,5.60
2018-10-05T02:35:56.387Z,6.60
2018-10-05T02:38:24.887Z,6.40
2018-10-05T02:40:53.406Z,6.30
2018-10-05T02:43:22.153Z,6.20
2018-10-05T02:45:51.035Z,5.83
2018-10-05T02:48:19.533Z,5.63
2018-10-05T02:50:48.017Z,5.60
2018-10-05T02:53:16.691Z,6.20
2018-10-05T02:55:45.230Z,6.10
2018-10-05T02:58:13.711Z,5.40
2018-10-05T03:00:53.452Z,5.70
2018-10-05T03:03:24.672Z,6.50
2018-10-05T03:11:52.197Z,5.47
2018-10-05T03:14:30.213Z,5.47
2018-10-05T03:17:03.153Z,7.10
2018-10-05T03:19:32.384Z,6.63
2018-10-05T03:22:01.053Z,6.63
2018-10-05T03:24:29.705Z,5.53
2018-10-05T03:26:58.279Z,5.20
2018-10-05T03:29:26.921Z,5.87
2018-10-05T03:31:56.783Z,6.23
2018-10-05T03:34:25.837Z,5.37
2018-10-05T03:36:54.484Z,6.20
2018-10-05T03:39:23.645Z,6.57
2018-10-05T03:41:52.725Z,6.60
2018-10-05T03:44:23.132Z,7.77
2018-10-05T03:46:52.478Z,5.47
2018-10-05T03:49:21.072Z,6.20
2018-10-05T03:51:54.697Z,6.90
2018-10-05T03:54:25.962Z,6.57
2018-10-05T03:56:56.573Z,6.90
2018-10-05T03:59:28.390Z,7.13
2018-10-05T04:05:02.296Z,5.57
2018-10-05T04:07:34.096Z,5.87
2018-10-05T04:10:03.153Z,6.13
2018-10-05T04:21:20.343Z,6.37
2018-10-05T04:23:49.263Z,5.90
2018-10-05T04:28:09.345Z,8.03
2018-10-05T04:31:58.429Z,7.50
2018-10-05T04:34:44.763Z,5.87
2018-10-05T04:37:17.554Z,6.40
2018-10-05T04:40:07.214Z,7.00
2018-10-05T04:43:25.605Z,5.40
2018-10-05T04:46:08.926Z,6.70
2018-10-05T04:48:45.190Z,6.70
2018-10-05T04:51:38.716Z,7.77
2018-10-05T05:13:09.075Z,6.40
2018-10-05T05:21:19.353Z,7.97
2018-10-05T05:23:48.515Z,8.00
2018-10-05T05:26:34.075Z,7.70
2018-10-05T05:29:05.360Z,7.43
2018-10-05T05:31:46.591Z,7.20
2018-10-05T05:34:21.473Z,8.53
2018-10-05T05:37:07.409Z,9.93
2018-10-05T05:40:05.933Z,6.83
2018-10-05T05:42:41.034Z,7.53
2018-10-05T05:48:15.126Z,6.80
2018-10-05T05:50:53.535Z,7.07
2018-10-05T05:58:57.374Z,7.40
2018-10-05T06:01:34.734Z,6.53
2018-10-05T06:06:59.862Z,5.83
2018-10-05T06:09:35.238Z,5.20
2018-10-05T06:12:10.863Z,7.60
2018-10-05T06:14:56.846Z,7.53
2018-10-05T06:17:40.724Z,7.53
2018-10-05T06:20:25.137Z,7.90
2018-10-05T06:23:11.159Z,6.93
2018-10-05T06:25:47.911Z,7.07
2018-10-05T06:28:29.843Z,6.10
2018-10-05T06:33:48.049Z,6.63
2018-10-05T06:36:27.708Z,8.67
2018-10-05T06:39:08.659Z,6.00
2018-10-05T06:41:43.776Z,7.60
2018-10-05T06:44:17.430Z,8.90
2018-10-05T06:46:48.079Z,6.77
2018-10-05T06:49:27.887Z,8.33
2018-10-05T06:52:07.365Z,6.90
2018-10-05T06:57:34.514Z,7.70
2018-10-05T07:00:18.097Z,8.27
2018-10-05T07:02:55.670Z,7.60
2018-10-05T07:05:25.390Z,6.97
2018-10-05T07:07:59.256Z,7.70
2018-10-05T07:10:30.483Z,6.20
2018-10-05T07:12:59.178Z,6.10
2018-10-05T07:15:27.978Z,6.40
2018-10-05T07:17:57.240Z,7.17
2018-10-05T07:20:25.952Z,7.40
2018-10-05T07:22:55.212Z,7.40
2018-10-05T07:25:24.178Z,7.43
2018-10-05T07:27:52.976Z,7.73
2018-10-05T07:30:21.832Z,6.77
2018-10-05T07:32:50.517Z,6.37
2018-10-05T07:35:19.097Z,9.23
2018-10-05T07:37:47.889Z,7.57
2018-10-05T07:40:16.623Z,6.73
2018-10-05T07:42:45.541Z,7.00
2018-10-05T07:45:14.169Z,7.17
2018-10-05T07:47:43.200Z,6.93
2018-10-05T07:50:12.002Z,6.70
2018-10-05T07:55:25.615Z,5.97
2018-10-05T07:57:54.416Z,8.20
2018-10-05T08:00:23.527Z,5.40
2018-10-05T08:02:52.733Z,6.40
2018-10-05T08:05:21.863Z,8.00
2018-10-05T08:07:51.131Z,6.53
2018-10-05T08:10:21.954Z,6.23
2018-10-05T08:12:51.072Z,5.30
2018-10-05T08:15:19.870Z,7.17
2018-10-05T08:17:48.722Z,6.40
2018-10-05T08:20:17.866Z,5.73
2018-10-05T08:22:47.020Z,6.43
2018-10-05T08:25:16.350Z,6.10
2018-10-05T08:27:45.312Z,6.03
2018-10-05T08:30:14.187Z,6.10
2018-10-05T08:32:43.288Z,5.93
2018-10-05T08:35:12.202Z,5.90
2018-10-05T08:37:45.426Z,6.63
2018-10-05T08:40:17.785Z,5.93
2018-10-05T08:42:46.955Z,6.23
2018-10-05T08:45:16.081Z,6.33
2018-10-05T08:47:45.879Z,6.87
2018-10-05T08:50:17.225Z,5.20
2018-10-05T08:52:47.549Z,6.30
2018-10-05T08:55:24.105Z,5.87
2018-10-05T08:57:53.085Z,5.93
2018-10-05T09:00:23.638Z,5.47
2018-10-05T09:02:54.583Z,6.03
2018-10-05T09:05:23.861Z,5.80
2018-10-05T09:07:53.244Z,5.87
2018-10-05T09:10:22.459Z,5.43
2018-10-05T09:12:51.987Z,6.77
2018-10-05T09:15:21.520Z,5.63
2018-10-05T09:17:51.324Z,5.80
2018-10-05T09:20:21.002Z,6.30
2018-10-05T09:22:49.822Z,5.93
2018-10-05T09:25:19.131Z,6.57
2018-10-05T09:27:47.824Z,5.67
2018-10-05T09:30:16.684Z,5.80
2018-10-05T09:32:45.767Z,5.17
2018-10-05T09:35:14.610Z,5.43
2018-10-05T09:37:43.860Z,5.83
2018-10-05T09:40:12.581Z,5.13
2018-10-05T09:42:41.299Z,6.10
2018-10-05T09:45:09.994Z,5.37
2018-10-05T09:47:39.122Z,4.30
2018-10-05T09:50:08.410Z,5.10
2018-10-05T09:52:37.031Z,5.07
2018-10-05T09:55:05.720Z,5.70
2018-10-05T09:57:34.607Z,5.00
2018-10-05T10:00:03.389Z,5.60
2018-10-05T10:03:37.982Z,5.53
2018-10-05T10:06:07.551Z,5.10
2018-10-05T10:08:36.233Z,5.60
2018-10-05T10:11:04.972Z,5.00
2018-10-05T10:13:33.627Z,5.63
2018-10-05T10:16:02.278Z,5.80
2018-10-05T10:18:32.229Z,5.13
2018-10-05T10:21:00.802Z,5.00
2018-10-05T10:23:29.576Z,5.00
2018-10-05T10:25:58.206Z,4.77
2018-10-05T10:28:26.857Z,4.80
2018-10-05T10:30:55.425Z,5.60
2018-10-05T10:33:24.126Z,4.83
2018-10-05T10:35:52.778Z,5.70
2018-10-05T10:38:21.561Z,4.47
2018-10-05T10:40:50.381Z,5.03
2018-10-05T10:43:19.055Z,4.43
2018-10-05T10:45:47.745Z,4.70
2018-10-05T10:48:16.399Z,5.13
2018-10-05T10:50:45.177Z,4.73
2018-10-05T10:53:14.017Z,4.77
2018-10-05T10:55:42.709Z,4.43
2018-10-05T10:58:12.497Z,4.33
2018-10-05T11:00:41.160Z,4.43
2018-10-05T11:03:10.416Z,4.60
2018-10-05T11:05:39.247Z,4.87
2018-10-05T11:08:07.912Z,4.53
2018-10-05T11:10:36.573Z,5.00
2018-10-05T11:13:05.173Z,5.00
2018-10-05T11:15:33.720Z,4.40
2018-10-05T11:18:02.345Z,5.43
2018-10-05T11:20:30.958Z,4.13
2018-10-05T11:22:59.880Z,4.40
2018-10-05T11:25:28.580Z,4.80
2018-10-05T11:27:57.730Z,4.30
2018-10-05T11:30:26.402Z,3.60
2018-10-05T11:32:55.078Z,4.37
2018-10-05T11:35:23.676Z,3.60
2018-10-05T11:37:52.380Z,3.60
2018-10-05T11:40:20.938Z,3.30
2018-10-05T11:42:49.628Z,4.10
2018-10-05T11:45:18.213Z,4.30
2018-10-05T11:47:47.344Z,4.57
2018-10-05T11:50:16.617Z,4.40
2018-10-05T11:52:45.247Z,4.53
2018-10-05T11:55:13.785Z,3.93
2018-10-05T11:57:42.605Z,4.10
2018-10-05T12:00:12.255Z,3.50
2018-10-05T12:02:41.590Z,3.80
2018-10-05T12:05:16.875Z,4.10
2018-10-05T12:07:45.717Z,3.83
2018-10-05T12:10:14.745Z,4.20
2018-10-05T12:12:50.383Z,3.87
2018-10-05T12:15:18.928Z,3.97
2018-10-05T12:17:47.574Z,3.90
2018-10-05T12:20:16.074Z,3.30
2018-10-05T12:22:44.816Z,4.00
2018-10-05T12:25:13.496Z,3.80
2018-10-05T12:27:42.107Z,3.30
2018-10-05T12:30:10.940Z,3.50
2018-10-05T12:32:39.570Z,3.60
2018-10-05T12:35:08.166Z,4.00
2018-10-05T12:37:36.724Z,3.30
2018-10-05T12:40:05.326Z,3.23
2018-10-05T12:42:33.963Z,3.30
2018-10-05T12:45:02.565Z,3.70
2018-10-05T12:47:31.297Z,3.33
2018-10-05T12:49:59.852Z,3.80
2018-10-05T12:52:28.884Z,3.37
2018-10-05T12:54:58.090Z,4.03
2018-10-05T12:57:27.487Z,3.20
2018-10-05T12:59:57.555Z,3.80
2018-10-05T13:02:26.203Z,3.70
2018-10-05T13:04:55.855Z,3.60
2018-10-05T13:07:26.037Z,2.93
2018-10-05T13:09:54.905Z,3.13
2018-10-05T13:12:23.660Z,3.30
2018-10-05T13:14:52.708Z,3.67
2018-10-05T13:17:21.459Z,3.27
2018-10-05T13:19:50.091Z,2.83
2018-10-05T13:22:18.986Z,3.80
2018-10-05T13:24:48.374Z,4.00
2018-10-05T13:27:17.584Z,4.40
2018-10-05T13:29:47.478Z,3.10
2018-10-05T13:32:18.080Z,3.60
2018-10-05T13:34:48.039Z,3.60
2018-10-05T13:37:19.716Z,3.17
2018-10-05T13:39:52.151Z,3.33
2018-10-05T13:42:22.608Z,2.90
2018-10-05T13:44:57.754Z,3.20
2018-10-05T13:47:29.265Z,2.93
2018-10-05T13:50:01.474Z,3.30
2018-10-05T13:52:32.914Z,3.17
2018-10-05T13:55:05.280Z,3.00
2018-10-05T13:57:35.939Z,2.83
2018-10-05T14:00:05.450Z,2.80
2018-10-05T14:02:34.842Z,3.50
2018-10-05T14:05:03.841Z,3.07
2018-10-05T14:07:34.727Z,3.77
2018-10-05T14:10:06.789Z,3.23
2018-10-05T14:12:36.353Z,3.60
2018-10-05T14:17:48.867Z,2.70
2018-10-05T14:20:19.756Z,3.50
2018-10-05T14:22:49.384Z,3.70
2018-10-05T14:25:22.015Z,4.13
2018-10-05T14:28:00.020Z,4.77
2018-10-05T14:30:43.196Z,3.90
2018-10-05T14:33:12.217Z,4.00
2018-10-05T14:35:49.146Z,4.10
2018-10-05T14:38:29.920Z,4.30
2018-10-05T14:41:13.856Z,4.80
2018-10-05T14:43:50.105Z,4.23
2018-10-05T14:46:30.575Z,3.73
2018-10-05T14:49:02.602Z,3.67
2018-10-05T14:51:42.291Z,4.40
2018-10-05T14:54:11.320Z,4.57
2018-10-05T14:56:50.690Z,4.87
2018-10-05T14:59:40.362Z,4.23
2018-10-05T15:02:14.608Z,3.50
2018-10-05T15:04:55.130Z,3.97
2018-10-05T15:07:31.724Z,4.13
2018-10-05T15:10:14.750Z,4.60
2018-10-05T15:12:54.539Z,3.83
2018-10-05T15:15:33.692Z,4.00
2018-10-05T15:18:06.690Z,4.67
2018-10-05T15:20:35.699Z,4.13
2018-10-05T15:23:04.922Z,4.37
2018-10-05T15:25:33.830Z,4.20
2018-10-05T15:28:08.177Z,4.90
2018-10-05T15:30:39.050Z,4.43
2018-10-05T15:33:12.053Z,3.70
2018-10-05T15:35:41.401Z,4.10
2018-10-05T15:38:11.936Z,4.43
2018-10-05T15:43:52.019Z,5.10
2018-10-05T15:46:31.809Z,4.80
2018-10-05T15:49:01.688Z,5.50
2018-10-05T15:51:31.770Z,5.43
2018-10-05T15:54:02.791Z,5.93
2018-10-05T15:56:32.606Z,5.10
2018-10-05T15:59:03.507Z,5.20
2018-10-05T16:01:39.962Z,5.70
2018-10-05T16:04:08.777Z,4.30
2018-10-05T16:06:37.324Z,4.63
2018-10-05T16:09:10.895Z,5.00
2018-10-05T16:18:01.741Z,5.67
2018-10-05T16:21:02.165Z,5.70
2018-10-05T16:37:22.765Z,5.60
2018-10-05T16:40:05.066Z,5.80
2018-10-05T16:48:41.556Z,5.53
2018-10-05T16:57:07.173Z,4.83
2018-10-05T16:59:36.986Z,5.43
2018-10-05T17:02:07.924Z,5.50
2018-10-05T17:04:36.670Z,6.50
2018-10-05T17:07:05.316Z,5.77
2018-10-05T17:09:33.999Z,5.40
2018-10-05T17:12:03.262Z,4.93
2018-10-05T17:14:31.800Z,5.53
2018-10-05T17:17:00.330Z,5.53
2018-10-05T17:19:29.750Z,6.03
2018-10-05T17:22:00.140Z,4.90
2018-10-05T17:24:29.956Z,6.53
2018-10-05T17:27:01.125Z,14.90
2018-10-05T17:29:31.783Z,8.17
2018-10-05T17:32:01.755Z,6.67
2018-10-05T17:34:30.993Z,8.00
2018-10-05T17:37:00.076Z,6.93
2018-10-05T17:39:31.069Z,7.40
2018-10-05T17:42:00.817Z,7.40
2018-10-05T17:44:32.815Z,8.20
2018-10-05T17:47:02.486Z,8.20
2018-10-05T17:49:33.667Z,7.10
2018-10-05T17:52:03.815Z,8.00
2018-10-05T17:54:36.017Z,6.60
2018-10-05T17:57:10.307Z,7.03
2018-10-05T18:14:36.427Z,6.63
2018-10-05T18:29:39.592Z,9.40
2018-10-05T19:22:20.376Z,8.17
2018-10-05T19:34:01.286Z,6.60
2018-10-05T19:43:25.226Z,7.03
2018-10-05T19:51:59.531Z,7.53
2018-10-05T19:54:49.538Z,8.23
2018-10-05T20:14:15.991Z,6.83
2018-10-05T20:17:04.670Z,7.03
2018-10-05T20:19:36.244Z,8.70
2018-10-05T20:22:06.019Z,7.47
2018-10-05T20:24:35.208Z,6.90
2018-10-05T20:27:04.342Z,7.20
2018-10-05T20:29:38.194Z,7.27
2018-10-05T20:32:07.534Z,7.00
2018-10-05T20:34:37.636Z,7.20
2018-10-05T20:37:06.901Z,6.83
2018-10-05T20:39:35.532Z,6.80
2018-10-05T20:42:04.340Z,6.87
2018-10-05T20:44:33.297Z,7.40
2018-10-05T20:47:02.087Z,9.10
2018-10-05T20:49:31.005Z,8.70
2018-10-05T20:51:59.612Z,8.80
2018-10-05T20:54:28.062Z,8.40
2018-10-05T20:56:56.836Z,7.80
2018-10-05T20:59:25.448Z,9.03
2018-10-05T21:01:54.442Z,7.03
2018-10-05T21:04:23.110Z,7.50
2018-10-05T21:06:51.727Z,7.90
2018-10-05T21:09:20.223Z,7.40
2018-10-05T21:11:48.741Z,8.47
2018-10-05T21:14:17.439Z,6.43
2018-10-05T21:16:46.175Z,6.97
2018-10-05T21:19:14.668Z,7.10
2018-10-05T21:21:43.621Z,7.50
2018-10-05T21:24:12.348Z,7.33
2018-10-05T21:26:40.831Z,7.13
2018-10-05T21:29:09.417Z,6.67
2018-10-05T21:31:42.734Z,7.10
2018-10-05T21:34:11.399Z,7.73
2018-10-05T21:36:40.288Z,7.80
2018-10-05T21:39:10.154Z,6.60
2018-10-05T21:41:38.830Z,7.07
2018-10-05T21:44:07.388Z,8.20
2018-10-05T21:46:35.952Z,7.33
2018-10-05T21:49:04.470Z,8.90
2018-10-05T21:51:33.259Z,8.37
2018-10-05T21:54:01.613Z,7.73
2018-10-05T21:56:31.426Z,7.00
2018-10-05T21:59:00.247Z,7.90
2018-10-05T22:01:29.192Z,7.50
2018-10-05T22:03:57.721Z,8.53
2018-10-05T22:06:26.405Z,8.70
2018-10-05T22:08:55.936Z,8.20
2018-10-05T22:11:25.323Z,8.10
2018-10-05T22:13:53.959Z,7.73
2018-10-05T22:16:22.717Z,8.40
2018-10-05T22:18:51.401Z,7.93
2018-10-05T22:21:20.587Z,7.53
2018-10-05T22:23:49.313Z,8.80
2018-10-05T22:26:18.089Z,7.27
2018-10-05T22:28:46.965Z,8.37
2018-10-05T22:31:15.652Z,7.90
2018-10-05T22:33:55.302Z,8.80
2018-10-05T22:36:24.033Z,7.53
2018-10-05T22:38:52.575Z,8.47
2018-10-05T22:41:21.025Z,7.40
2018-10-05T22:43:49.813Z,7.60
2018-10-05T22:46:18.709Z,7.70
2018-10-05T22:48:47.521Z,8.73
2018-10-05T22:51:16.112Z,7.80
2018-10-05T22:53:44.977Z,8.53
2018-10-05T22:56:13.925Z,8.70
2018-10-05T22:58:43.563Z,7.57
2018-10-05T23:01:16.172Z,7.43
2018-10-05T23:03:46.833Z,7.53
2018-10-05T23:06:16.357Z,7.70
2018-10-05T23:08:44.931Z,7.50
2018-10-05T23:11:13.421Z,7.63
2018-10-05T23:13:42.056Z,8.03
2018-10-05T23:16:10.492Z,7.90
2018-10-05T23:18:39.176Z,8.10
2018-10-05T23:21:08.686Z,6.90
2018-10-05T23:23:38.510Z,7.20
2018-10-05T23:26:07.295Z,7.40
2018-10-05T23:28:35.920Z,8.73
2018-10-05T23:31:05.204Z,7.50
2018-10-05T23:33:33.675Z,7.80
2018-10-05T23:36:02.190Z,6.70
2018-10-05T23:38:30.854Z,7.50
2018-10-05T23:40:59.508Z,7.37
2018-10-05T23:43:28.415Z,7.80
2018-10-05T23:45:57.110Z,6.93
2018-10-05T23:48:25.738Z,7.00
2018-10-05T23:50:54.398Z,8.73
2018-10-05T23:53:23.647Z,7.10
2018-10-05T23:55:52.445Z,7.73
2018-10-05T23:58:21.006Z,8.00
